sensor_id;sensor_type;location;lat;lon;timestamp;P1;durP1;ratioP1;P2;durP2;ratioP2
34828;SDS011;21042;47.620;12.188;2023-02-15T00:01:47;17.23;;;8.43;;
34828;SDS011;21042;47.620;12.188;2023-02-15T00:04:15;14.85;;;8.00;;
34828;SDS011;21042;47.620;12.188;2023-02-15T00:06:45;18.52;;;8.48;;
34828;SDS011;21042;47.620;12.188;2023-02-15T00:09:12;20.35;;;8.90;;
34828;SDS011;21042;47.620;12.188;2023-02-15T00:11:39;17.77;;;8.23;;
34828;SDS011;21042;47.620;12.188;2023-02-15T00:14:13;19.08;;;8.18;;
34828;SDS011;21042;47.620;12.188;2023-02-15T00:16:47;14.98;;;7.68;;
34828;SDS011;21042;47.620;12.188;2023-02-15T00:19:15;16.20;;;7.75;;
34828;SDS011;21042;47.620;12.188;2023-02-15T00:21:43;22.77;;;8.25;;
34828;SDS011;21042;47.620;12.188;2023-02-15T00:24:12;18.42;;;7.75;;
34828;SDS011;21042;47.620;12.188;2023-02-15T00:26:41;16.67;;;7.32;;
34828;SDS011;21042;47.620;12.188;2023-02-15T00:29:09;15.55;;;6.65;;
34828;SDS011;21042;47.620;12.188;2023-02-15T00:31:36;17.13;;;7.70;;
34828;SDS011;21042;47.620;12.188;2023-02-15T00:36:34;16.00;;;7.10;;
34828;SDS011;21042;47.620;12.188;2023-02-15T00:39:01;15.30;;;7.05;;
34828;SDS011;21042;47.620;12.188;2023-02-15T00:41:27;15.57;;;5.93;;
34828;SDS011;21042;47.620;12.188;2023-02-15T00:43:54;16.73;;;5.82;;
34828;SDS011;21042;47.620;12.188;2023-02-15T00:46:21;12.73;;;5.97;;
34828;SDS011;21042;47.620;12.188;2023-02-15T00:48:48;13.73;;;6.38;;
34828;SDS011;21042;47.620;12.188;2023-02-15T00:51:14;15.02;;;6.40;;
34828;SDS011;21042;47.620;12.188;2023-02-15T00:53:41;16.02;;;6.13;;
34828;SDS011;21042;47.620;12.188;2023-02-15T00:56:10;16.50;;;6.65;;
34828;SDS011;21042;47.620;12.188;2023-02-15T00:58:37;12.93;;;6.43;;
34828;SDS011;21042;47.620;12.188;2023-02-15T01:01:05;16.30;;;6.63;;
34828;SDS011;21042;47.620;12.188;2023-02-15T01:03:35;15.77;;;6.65;;
34828;SDS011;21042;47.620;12.188;2023-02-15T01:06:02;14.02;;;6.47;;
34828;SDS011;21042;47.620;12.188;2023-02-15T01:08:29;12.63;;;6.28;;
34828;SDS011;21042;47.620;12.188;2023-02-15T01:10:57;12.07;;;6.22;;
34828;SDS011;21042;47.620;12.188;2023-02-15T01:13:33;10.00;;;5.68;;
34828;SDS011;21042;47.620;12.188;2023-02-15T01:16:00;13.18;;;6.53;;
34828;SDS011;21042;47.620;12.188;2023-02-15T01:18:28;10.60;;;5.75;;
34828;SDS011;21042;47.620;12.188;2023-02-15T01:20:56;14.65;;;6.60;;
34828;SDS011;21042;47.620;12.188;2023-02-15T01:23:23;11.35;;;5.95;;
34828;SDS011;21042;47.620;12.188;2023-02-15T01:25:50;17.50;;;6.32;;
34828;SDS011;21042;47.620;12.188;2023-02-15T01:28:17;11.02;;;5.50;;
34828;SDS011;21042;47.620;12.188;2023-02-15T01:30:44;13.32;;;5.72;;
34828;SDS011;21042;47.620;12.188;2023-02-15T01:33:10;13.15;;;5.43;;
34828;SDS011;21042;47.620;12.188;2023-02-15T01:35:45;13.38;;;5.63;;
34828;SDS011;21042;47.620;12.188;2023-02-15T01:38:12;12.02;;;4.90;;
34828;SDS011;21042;47.620;12.188;2023-02-15T01:40:40;11.98;;;4.22;;
34828;SDS011;21042;47.620;12.188;2023-02-15T01:43:09;9.90;;;3.85;;
34828;SDS011;21042;47.620;12.188;2023-02-15T01:45:37;10.85;;;4.50;;
34828;SDS011;21042;47.620;12.188;2023-02-15T01:48:14;11.80;;;3.88;;
34828;SDS011;21042;47.620;12.188;2023-02-15T01:50:53;13.20;;;5.03;;
34828;SDS011;21042;47.620;12.188;2023-02-15T01:56:08;9.30;;;4.85;;
34828;SDS011;21042;47.620;12.188;2023-02-15T01:58:42;10.82;;;4.82;;
34828;SDS011;21042;47.620;12.188;2023-02-15T02:01:09;11.40;;;5.38;;
34828;SDS011;21042;47.620;12.188;2023-02-15T02:03:44;12.57;;;5.95;;
34828;SDS011;21042;47.620;12.188;2023-02-15T02:06:25;17.55;;;6.28;;
34828;SDS011;21042;47.620;12.188;2023-02-15T02:08:53;12.32;;;6.05;;
34828;SDS011;21042;47.620;12.188;2023-02-15T02:11:21;13.38;;;5.72;;
34828;SDS011;21042;47.620;12.188;2023-02-15T02:13:48;9.55;;;5.05;;
34828;SDS011;21042;47.620;12.188;2023-02-15T02:21:58;11.52;;;4.22;;
34828;SDS011;21042;47.620;12.188;2023-02-15T02:24:44;7.95;;;4.35;;
34828;SDS011;21042;47.620;12.188;2023-02-15T02:27:47;8.80;;;4.28;;
34828;SDS011;21042;47.620;12.188;2023-02-15T02:30:23;8.50;;;4.43;;
34828;SDS011;21042;47.620;12.188;2023-02-15T02:34:24;10.05;;;5.07;;
34828;SDS011;21042;47.620;12.188;2023-02-15T02:36:44;11.98;;;5.55;;
34828;SDS011;21042;47.620;12.188;2023-02-15T02:42:12;10.25;;;5.30;;
34828;SDS011;21042;47.620;12.188;2023-02-15T02:45:00;12.52;;;5.43;;
34828;SDS011;21042;47.620;12.188;2023-02-15T02:47:29;12.90;;;5.38;;
34828;SDS011;21042;47.620;12.188;2023-02-15T02:50:01;11.45;;;5.35;;
34828;SDS011;21042;47.620;12.188;2023-02-15T02:52:40;12.82;;;5.47;;
34828;SDS011;21042;47.620;12.188;2023-02-15T02:55:11;12.85;;;6.20;;
34828;SDS011;21042;47.620;12.188;2023-02-15T02:58:08;13.00;;;5.72;;
34828;SDS011;21042;47.620;12.188;2023-02-15T03:00:34;16.25;;;5.85;;
34828;SDS011;21042;47.620;12.188;2023-02-15T03:03:09;11.25;;;6.07;;
34828;SDS011;21042;47.620;12.188;2023-02-15T03:05:43;14.45;;;5.40;;
34828;SDS011;21042;47.620;12.188;2023-02-15T03:08:13;11.38;;;4.53;;
34828;SDS011;21042;47.620;12.188;2023-02-15T03:10:57;7.97;;;4.45;;
34828;SDS011;21042;47.620;12.188;2023-02-15T03:13:26;10.45;;;4.65;;
34828;SDS011;21042;47.620;12.188;2023-02-15T03:15:53;10.23;;;3.95;;
34828;SDS011;21042;47.620;12.188;2023-02-15T03:18:48;5.50;;;2.85;;
34828;SDS011;21042;47.620;12.188;2023-02-15T03:21:57;8.85;;;3.15;;
34828;SDS011;21042;47.620;12.188;2023-02-15T03:24:37;8.98;;;3.63;;
34828;SDS011;21042;47.620;12.188;2023-02-15T03:27:11;9.25;;;4.20;;
34828;SDS011;21042;47.620;12.188;2023-02-15T03:29:48;9.93;;;4.63;;
34828;SDS011;21042;47.620;12.188;2023-02-15T03:32:19;15.50;;;5.47;;
34828;SDS011;21042;47.620;12.188;2023-02-15T03:34:47;11.07;;;4.90;;
34828;SDS011;21042;47.620;12.188;2023-02-15T03:40:28;12.70;;;5.75;;
34828;SDS011;21042;47.620;12.188;2023-02-15T03:43:17;14.05;;;5.30;;
34828;SDS011;21042;47.620;12.188;2023-02-15T03:45:51;10.68;;;5.47;;
34828;SDS011;21042;47.620;12.188;2023-02-15T03:48:24;9.77;;;5.00;;
34828;SDS011;21042;47.620;12.188;2023-02-15T03:51:13;12.10;;;5.70;;
34828;SDS011;21042;47.620;12.188;2023-02-15T03:54:02;13.90;;;5.55;;
34828;SDS011;21042;47.620;12.188;2023-02-15T03:56:30;11.63;;;5.10;;
34828;SDS011;21042;47.620;12.188;2023-02-15T03:58:59;9.82;;;4.22;;
34828;SDS011;21042;47.620;12.188;2023-02-15T04:04:38;8.25;;;4.25;;
34828;SDS011;21042;47.620;12.188;2023-02-15T04:07:08;11.55;;;4.70;;
34828;SDS011;21042;47.620;12.188;2023-02-15T04:09:35;7.57;;;3.70;;
34828;SDS011;21042;47.620;12.188;2023-02-15T04:12:21;6.35;;;3.40;;
34828;SDS011;21042;47.620;12.188;2023-02-15T04:14:48;6.78;;;3.38;;
34828;SDS011;21042;47.620;12.188;2023-02-15T04:17:33;5.15;;;2.75;;
34828;SDS011;21042;47.620;12.188;2023-02-15T04:20:01;5.88;;;2.55;;
34828;SDS011;21042;47.620;12.188;2023-02-15T04:22:47;8.55;;;3.45;;
34828;SDS011;21042;47.620;12.188;2023-02-15T04:25:32;5.90;;;3.58;;
34828;SDS011;21042;47.620;12.188;2023-02-15T04:27:59;7.05;;;3.08;;
34828;SDS011;21042;47.620;12.188;2023-02-15T04:30:25;9.02;;;4.10;;
34828;SDS011;21042;47.620;12.188;2023-02-15T04:32:53;11.50;;;4.78;;
34828;SDS011;21042;47.620;12.188;2023-02-15T04:35:21;8.30;;;4.55;;
34828;SDS011;21042;47.620;12.188;2023-02-15T04:37:48;9.57;;;5.22;;
34828;SDS011;21042;47.620;12.188;2023-02-15T04:40:15;10.55;;;5.18;;
34828;SDS011;21042;47.620;12.188;2023-02-15T04:42:46;13.02;;;4.53;;
34828;SDS011;21042;47.620;12.188;2023-02-15T04:45:15;12.65;;;4.65;;
34828;SDS011;21042;47.620;12.188;2023-02-15T04:47:42;10.23;;;4.80;;
34828;SDS011;21042;47.620;12.188;2023-02-15T04:50:09;9.25;;;4.93;;
34828;SDS011;21042;47.620;12.188;2023-02-15T04:55:03;9.77;;;4.05;;
34828;SDS011;21042;47.620;12.188;2023-02-15T04:57:30;13.43;;;5.28;;
34828;SDS011;21042;47.620;12.188;2023-02-15T04:59:57;8.57;;;4.43;;
34828;SDS011;21042;47.620;12.188;2023-02-15T05:02:25;12.35;;;3.75;;
34828;SDS011;21042;47.620;12.188;2023-02-15T05:04:51;6.20;;;3.78;;
34828;SDS011;21042;47.620;12.188;2023-02-15T05:07:18;6.75;;;3.10;;
34828;SDS011;21042;47.620;12.188;2023-02-15T05:09:46;5.35;;;2.97;;
34828;SDS011;21042;47.620;12.188;2023-02-15T05:12:13;6.45;;;2.47;;
34828;SDS011;21042;47.620;12.188;2023-02-15T05:14:40;3.35;;;1.58;;
34828;SDS011;21042;47.620;12.188;2023-02-15T05:17:06;7.93;;;2.03;;
34828;SDS011;21042;47.620;12.188;2023-02-15T05:19:33;6.90;;;2.30;;
34828;SDS011;21042;47.620;12.188;2023-02-15T05:22:00;5.45;;;2.70;;
34828;SDS011;21042;47.620;12.188;2023-02-15T05:24:26;4.28;;;2.00;;
34828;SDS011;21042;47.620;12.188;2023-02-15T05:27:12;5.15;;;2.10;;
34828;SDS011;21042;47.620;12.188;2023-02-15T05:29:57;3.30;;;1.80;;
34828;SDS011;21042;47.620;12.188;2023-02-15T05:32:24;3.92;;;2.22;;
34828;SDS011;21042;47.620;12.188;2023-02-15T05:34:51;5.57;;;2.30;;
34828;SDS011;21042;47.620;12.188;2023-02-15T05:37:18;6.40;;;2.60;;
34828;SDS011;21042;47.620;12.188;2023-02-15T05:39:45;4.40;;;2.47;;
34828;SDS011;21042;47.620;12.188;2023-02-15T05:42:11;5.03;;;2.45;;
34828;SDS011;21042;47.620;12.188;2023-02-15T05:44:38;6.63;;;2.85;;
34828;SDS011;21042;47.620;12.188;2023-02-15T05:47:05;6.03;;;2.72;;
34828;SDS011;21042;47.620;12.188;2023-02-15T05:49:33;6.57;;;2.60;;
34828;SDS011;21042;47.620;12.188;2023-02-15T05:52:00;6.63;;;3.00;;
34828;SDS011;21042;47.620;12.188;2023-02-15T05:56:54;6.18;;;2.70;;
34828;SDS011;21042;47.620;12.188;2023-02-15T05:59:20;8.82;;;2.95;;
34828;SDS011;21042;47.620;12.188;2023-02-15T06:01:47;14.23;;;5.20;;
34828;SDS011;21042;47.620;12.188;2023-02-15T06:04:14;21.65;;;6.68;;
34828;SDS011;21042;47.620;12.188;2023-02-15T06:06:41;16.85;;;6.95;;
34828;SDS011;21042;47.620;12.188;2023-02-15T06:09:07;19.25;;;7.07;;
34828;SDS011;21042;47.620;12.188;2023-02-15T06:11:34;19.60;;;7.35;;
34828;SDS011;21042;47.620;12.188;2023-02-15T06:14:00;18.77;;;5.93;;
34828;SDS011;21042;47.620;12.188;2023-02-15T06:16:27;12.57;;;4.78;;
34828;SDS011;21042;47.620;12.188;2023-02-15T06:18:54;16.02;;;6.03;;
34828;SDS011;21042;47.620;12.188;2023-02-15T06:21:21;11.98;;;4.60;;
34828;SDS011;21042;47.620;12.188;2023-02-15T06:23:47;8.88;;;4.88;;
34828;SDS011;21042;47.620;12.188;2023-02-15T06:26:14;11.77;;;4.57;;
34828;SDS011;21042;47.620;12.188;2023-02-15T06:28:41;9.45;;;4.72;;
34828;SDS011;21042;47.620;12.188;2023-02-15T06:31:07;13.00;;;3.80;;
34828;SDS011;21042;47.620;12.188;2023-02-15T06:33:34;12.25;;;5.30;;
34828;SDS011;21042;47.620;12.188;2023-02-15T06:36:01;13.32;;;5.35;;
34828;SDS011;21042;47.620;12.188;2023-02-15T06:38:30;11.82;;;6.20;;
34828;SDS011;21042;47.620;12.188;2023-02-15T06:40:57;14.52;;;7.05;;
34828;SDS011;21042;47.620;12.188;2023-02-15T06:43:24;21.52;;;9.07;;
34828;SDS011;21042;47.620;12.188;2023-02-15T06:45:50;21.15;;;9.23;;
34828;SDS011;21042;47.620;12.188;2023-02-15T06:48:17;16.70;;;7.43;;
34828;SDS011;21042;47.620;12.188;2023-02-15T06:50:44;20.90;;;9.50;;
34828;SDS011;21042;47.620;12.188;2023-02-15T06:53:11;20.73;;;9.82;;
34828;SDS011;21042;47.620;12.188;2023-02-15T06:55:37;27.45;;;10.73;;
34828;SDS011;21042;47.620;12.188;2023-02-15T06:58:04;19.25;;;7.13;;
34828;SDS011;21042;47.620;12.188;2023-02-15T07:00:31;13.35;;;5.85;;
34828;SDS011;21042;47.620;12.188;2023-02-15T07:02:58;14.25;;;6.85;;
34828;SDS011;21042;47.620;12.188;2023-02-15T07:05:25;18.10;;;7.40;;
34828;SDS011;21042;47.620;12.188;2023-02-15T07:07:57;16.27;;;7.00;;
34828;SDS011;21042;47.620;12.188;2023-02-15T07:10:25;21.52;;;8.93;;
34828;SDS011;21042;47.620;12.188;2023-02-15T07:12:52;20.70;;;8.35;;
34828;SDS011;21042;47.620;12.188;2023-02-15T07:17:47;15.30;;;6.82;;
34828;SDS011;21042;47.620;12.188;2023-02-15T07:20:19;19.38;;;8.60;;
34828;SDS011;21042;47.620;12.188;2023-02-15T07:22:47;23.27;;;10.13;;
34828;SDS011;21042;47.620;12.188;2023-02-15T07:25:15;26.75;;;11.00;;
34828;SDS011;21042;47.620;12.188;2023-02-15T07:27:42;37.42;;;13.52;;
34828;SDS011;21042;47.620;12.188;2023-02-15T07:30:11;36.92;;;12.10;;
34828;SDS011;21042;47.620;12.188;2023-02-15T07:32:40;17.48;;;7.35;;
34828;SDS011;21042;47.620;12.188;2023-02-15T07:35:30;10.32;;;5.35;;
34828;SDS011;21042;47.620;12.188;2023-02-15T07:37:56;13.65;;;5.50;;
34828;SDS011;21042;47.620;12.188;2023-02-15T07:40:23;9.60;;;4.70;;
34828;SDS011;21042;47.620;12.188;2023-02-15T07:42:50;16.13;;;7.40;;
34828;SDS011;21042;47.620;12.188;2023-02-15T07:45:21;19.55;;;7.22;;
34828;SDS011;21042;47.620;12.188;2023-02-15T07:47:48;19.35;;;6.75;;
34828;SDS011;21042;47.620;12.188;2023-02-15T07:50:15;20.27;;;7.72;;
34828;SDS011;21042;47.620;12.188;2023-02-15T07:52:42;14.55;;;7.70;;
34828;SDS011;21042;47.620;12.188;2023-02-15T07:55:08;16.05;;;6.78;;
34828;SDS011;21042;47.620;12.188;2023-02-15T07:57:41;17.20;;;6.68;;
34828;SDS011;21042;47.620;12.188;2023-02-15T08:00:12;12.85;;;6.45;;
34828;SDS011;21042;47.620;12.188;2023-02-15T08:02:40;15.35;;;6.47;;
34828;SDS011;21042;47.620;12.188;2023-02-15T08:05:07;16.67;;;6.80;;
34828;SDS011;21042;47.620;12.188;2023-02-15T08:07:34;16.75;;;5.30;;
34828;SDS011;21042;47.620;12.188;2023-02-15T08:10:00;15.13;;;7.22;;
34828;SDS011;21042;47.620;12.188;2023-02-15T08:12:27;21.10;;;8.10;;
34828;SDS011;21042;47.620;12.188;2023-02-15T08:14:54;22.77;;;7.78;;
34828;SDS011;21042;47.620;12.188;2023-02-15T08:17:21;12.48;;;5.93;;
34828;SDS011;21042;47.620;12.188;2023-02-15T08:19:48;13.75;;;8.02;;
34828;SDS011;21042;47.620;12.188;2023-02-15T08:22:14;14.98;;;7.63;;
34828;SDS011;21042;47.620;12.188;2023-02-15T08:24:41;12.98;;;5.15;;
34828;SDS011;21042;47.620;12.188;2023-02-15T08:27:09;13.30;;;7.22;;
34828;SDS011;21042;47.620;12.188;2023-02-15T08:29:37;15.20;;;8.32;;
34828;SDS011;21042;47.620;12.188;2023-02-15T08:34:33;18.00;;;8.45;;
34828;SDS011;21042;47.620;12.188;2023-02-15T08:37:02;17.65;;;8.90;;
34828;SDS011;21042;47.620;12.188;2023-02-15T08:41:56;19.75;;;8.98;;
34828;SDS011;21042;47.620;12.188;2023-02-15T08:44:23;18.42;;;8.77;;
34828;SDS011;21042;47.620;12.188;2023-02-15T08:46:50;11.40;;;6.80;;
34828;SDS011;21042;47.620;12.188;2023-02-15T08:49:18;10.65;;;6.28;;
34828;SDS011;21042;47.620;12.188;2023-02-15T08:51:46;11.20;;;5.75;;
34828;SDS011;21042;47.620;12.188;2023-02-15T08:54:15;11.70;;;5.40;;
34828;SDS011;21042;47.620;12.188;2023-02-15T08:56:47;12.38;;;5.60;;
34828;SDS011;21042;47.620;12.188;2023-02-15T09:01:45;10.32;;;5.22;;
34828;SDS011;21042;47.620;12.188;2023-02-15T09:04:13;13.50;;;5.88;;
34828;SDS011;21042;47.620;12.188;2023-02-15T09:06:42;11.52;;;5.05;;
34828;SDS011;21042;47.620;12.188;2023-02-15T09:09:13;9.02;;;4.80;;
34828;SDS011;21042;47.620;12.188;2023-02-15T09:11:41;9.38;;;4.78;;
34828;SDS011;21042;47.620;12.188;2023-02-15T09:14:10;11.70;;;5.93;;
34828;SDS011;21042;47.620;12.188;2023-02-15T09:16:42;14.25;;;5.68;;
34828;SDS011;21042;47.620;12.188;2023-02-15T09:19:16;11.13;;;4.85;;
34828;SDS011;21042;47.620;12.188;2023-02-15T09:21:44;8.73;;;4.53;;
34828;SDS011;21042;47.620;12.188;2023-02-15T09:24:13;7.57;;;3.95;;
34828;SDS011;21042;47.620;12.188;2023-02-15T09:26:42;7.63;;;4.18;;
34828;SDS011;21042;47.620;12.188;2023-02-15T09:29:11;10.23;;;4.45;;
34828;SDS011;21042;47.620;12.188;2023-02-15T09:31:39;9.02;;;4.68;;
34828;SDS011;21042;47.620;12.188;2023-02-15T09:34:13;10.70;;;4.55;;
34828;SDS011;21042;47.620;12.188;2023-02-15T09:36:45;9.82;;;4.13;;
34828;SDS011;21042;47.620;12.188;2023-02-15T09:39:13;8.50;;;4.22;;
34828;SDS011;21042;47.620;12.188;2023-02-15T09:50:17;6.22;;;3.58;;
34828;SDS011;21042;47.620;12.188;2023-02-15T09:52:54;5.82;;;3.25;;
34828;SDS011;21042;47.620;12.188;2023-02-15T09:55:44;7.18;;;3.63;;
34828;SDS011;21042;47.620;12.188;2023-02-15T10:06:18;5.88;;;2.67;;
34828;SDS011;21042;47.620;12.188;2023-02-15T10:11:53;4.25;;;2.17;;
34828;SDS011;21042;47.620;12.188;2023-02-15T10:20:13;13.90;;;3.42;;
34828;SDS011;21042;47.620;12.188;2023-02-15T10:25:19;11.02;;;2.97;;
34828;SDS011;21042;47.620;12.188;2023-02-15T10:28:16;9.55;;;3.03;;
34828;SDS011;21042;47.620;12.188;2023-02-15T10:38:42;8.73;;;3.25;;
34828;SDS011;21042;47.620;12.188;2023-02-15T10:41:20;7.03;;;3.03;;
34828;SDS011;21042;47.620;12.188;2023-02-15T11:03:46;5.00;;;3.00;;
34828;SDS011;21042;47.620;12.188;2023-02-15T11:06:33;7.25;;;3.15;;
34828;SDS011;21042;47.620;12.188;2023-02-15T11:09:03;8.85;;;3.03;;
34828;SDS011;21042;47.620;12.188;2023-02-15T11:11:39;6.72;;;2.90;;
34828;SDS011;21042;47.620;12.188;2023-02-15T11:14:12;9.75;;;2.88;;
34828;SDS011;21042;47.620;12.188;2023-02-15T11:16:49;7.40;;;3.13;;
34828;SDS011;21042;47.620;12.188;2023-02-15T11:19:22;6.97;;;3.05;;
34828;SDS011;21042;47.620;12.188;2023-02-15T11:21:55;7.50;;;2.90;;
34828;SDS011;21042;47.620;12.188;2023-02-15T11:24:29;4.88;;;3.00;;
34828;SDS011;21042;47.620;12.188;2023-02-15T11:27:00;4.70;;;2.78;;
34828;SDS011;21042;47.620;12.188;2023-02-15T11:29:40;8.77;;;3.00;;
34828;SDS011;21042;47.620;12.188;2023-02-15T11:32:21;10.07;;;3.65;;
34828;SDS011;21042;47.620;12.188;2023-02-15T11:34:59;8.95;;;2.67;;
34828;SDS011;21042;47.620;12.188;2023-02-15T11:40:23;10.13;;;2.50;;
34828;SDS011;21042;47.620;12.188;2023-02-15T11:43:00;10.30;;;3.22;;
34828;SDS011;21042;47.620;12.188;2023-02-15T11:45:32;4.82;;;2.78;;
34828;SDS011;21042;47.620;12.188;2023-02-15T11:48:12;8.40;;;2.80;;
34828;SDS011;21042;47.620;12.188;2023-02-15T11:50:41;4.45;;;2.80;;
34828;SDS011;21042;47.620;12.188;2023-02-15T11:53:16;11.60;;;3.33;;
34828;SDS011;21042;47.620;12.188;2023-02-15T11:55:45;4.55;;;2.50;;
34828;SDS011;21042;47.620;12.188;2023-02-15T12:01:10;5.00;;;3.00;;
34828;SDS011;21042;47.620;12.188;2023-02-15T12:04:10;7.15;;;2.42;;
34828;SDS011;21042;47.620;12.188;2023-02-15T12:06:48;5.35;;;2.60;;
34828;SDS011;21042;47.620;12.188;2023-02-15T12:12:38;15.25;;;3.10;;
34828;SDS011;21042;47.620;12.188;2023-02-15T12:15:06;6.05;;;2.80;;
34828;SDS011;21042;47.620;12.188;2023-02-15T12:17:40;8.05;;;2.80;;
34828;SDS011;21042;47.620;12.188;2023-02-15T12:22:52;6.30;;;2.78;;
34828;SDS011;21042;47.620;12.188;2023-02-15T12:25:37;6.85;;;2.80;;
34828;SDS011;21042;47.620;12.188;2023-02-15T12:28:19;15.00;;;3.40;;
34828;SDS011;21042;47.620;12.188;2023-02-15T12:30:53;15.45;;;3.05;;
34828;SDS011;21042;47.620;12.188;2023-02-15T12:33:30;9.45;;;3.60;;
34828;SDS011;21042;47.620;12.188;2023-02-15T12:35:59;6.68;;;2.70;;
34828;SDS011;21042;47.620;12.188;2023-02-15T12:38:36;9.20;;;2.72;;
34828;SDS011;21042;47.620;12.188;2023-02-15T12:41:04;10.00;;;2.63;;
34828;SDS011;21042;47.620;12.188;2023-02-15T12:43:48;9.02;;;2.70;;
34828;SDS011;21042;47.620;12.188;2023-02-15T12:46:39;6.15;;;1.98;;
34828;SDS011;21042;47.620;12.188;2023-02-15T12:54:49;3.75;;;2.30;;
34828;SDS011;21042;47.620;12.188;2023-02-15T12:57:21;6.25;;;2.38;;
34828;SDS011;21042;47.620;12.188;2023-02-15T12:59:55;5.78;;;1.85;;
34828;SDS011;21042;47.620;12.188;2023-02-15T13:02:28;6.00;;;2.35;;
34828;SDS011;21042;47.620;12.188;2023-02-15T13:04:56;9.63;;;5.47;;
34828;SDS011;21042;47.620;12.188;2023-02-15T13:07:30;15.55;;;7.68;;
34828;SDS011;21042;47.620;12.188;2023-02-15T13:09:58;15.45;;;8.40;;
34828;SDS011;21042;47.620;12.188;2023-02-15T13:12:25;15.80;;;8.63;;
34828;SDS011;21042;47.620;12.188;2023-02-15T13:14:56;12.68;;;7.47;;
34828;SDS011;21042;47.620;12.188;2023-02-15T13:17:26;14.73;;;7.53;;
34828;SDS011;21042;47.620;12.188;2023-02-15T13:19:57;16.67;;;6.95;;
34828;SDS011;21042;47.620;12.188;2023-02-15T13:22:33;15.13;;;7.45;;
34828;SDS011;21042;47.620;12.188;2023-02-15T13:27:48;17.25;;;8.10;;
34828;SDS011;21042;47.620;12.188;2023-02-15T13:30:23;18.02;;;8.82;;
34828;SDS011;21042;47.620;12.188;2023-02-15T13:32:59;14.85;;;8.27;;
34828;SDS011;21042;47.620;12.188;2023-02-15T13:35:36;16.05;;;8.45;;
34828;SDS011;21042;47.620;12.188;2023-02-15T13:41:30;15.38;;;9.00;;
34828;SDS011;21042;47.620;12.188;2023-02-15T13:46:46;16.58;;;9.23;;
34828;SDS011;21042;47.620;12.188;2023-02-15T13:52:19;16.60;;;9.98;;
34828;SDS011;21042;47.620;12.188;2023-02-15T13:54:59;20.13;;;9.20;;
34828;SDS011;21042;47.620;12.188;2023-02-15T14:00:51;19.85;;;9.30;;
34828;SDS011;21042;47.620;12.188;2023-02-15T14:03:35;19.00;;;9.00;;
34828;SDS011;21042;47.620;12.188;2023-02-15T14:26:19;13.55;;;7.97;;
34828;SDS011;21042;47.620;12.188;2023-02-15T14:31:43;18.70;;;7.95;;
34828;SDS011;21042;47.620;12.188;2023-02-15T14:36:52;15.40;;;7.78;;
34828;SDS011;21042;47.620;12.188;2023-02-15T14:39:28;12.65;;;7.15;;
34828;SDS011;21042;47.620;12.188;2023-02-15T14:42:34;13.85;;;7.30;;
34828;SDS011;21042;47.620;12.188;2023-02-15T14:45:21;14.52;;;8.48;;
34828;SDS011;21042;47.620;12.188;2023-02-15T14:48:11;18.35;;;8.32;;
34828;SDS011;21042;47.620;12.188;2023-02-15T14:50:45;17.38;;;8.40;;
34828;SDS011;21042;47.620;12.188;2023-02-15T14:53:24;16.52;;;8.35;;
34828;SDS011;21042;47.620;12.188;2023-02-15T14:56:19;15.30;;;8.63;;
34828;SDS011;21042;47.620;12.188;2023-02-15T15:01:41;17.45;;;8.15;;
34828;SDS011;21042;47.620;12.188;2023-02-15T15:04:14;20.13;;;8.65;;
34828;SDS011;21042;47.620;12.188;2023-02-15T15:07:25;17.65;;;9.30;;
34828;SDS011;21042;47.620;12.188;2023-02-15T15:20:56;15.63;;;9.45;;
34828;SDS011;21042;47.620;12.188;2023-02-15T15:31:22;17.38;;;8.90;;
34828;SDS011;21042;47.620;12.188;2023-02-15T15:37:00;14.15;;;8.55;;
34828;SDS011;21042;47.620;12.188;2023-02-15T15:39:53;18.70;;;8.88;;
34828;SDS011;21042;47.620;12.188;2023-02-15T15:47:51;17.58;;;8.90;;
34828;SDS011;21042;47.620;12.188;2023-02-15T15:50:39;15.30;;;9.07;;
34828;SDS011;21042;47.620;12.188;2023-02-15T15:53:10;17.27;;;9.52;;
34828;SDS011;21042;47.620;12.188;2023-02-15T15:55:48;18.15;;;9.50;;
34828;SDS011;21042;47.620;12.188;2023-02-15T15:58:18;15.27;;;9.20;;
34828;SDS011;21042;47.620;12.188;2023-02-15T16:00:47;15.57;;;9.27;;
34828;SDS011;21042;47.620;12.188;2023-02-15T16:03:27;19.23;;;8.75;;
34828;SDS011;21042;47.620;12.188;2023-02-15T16:05:55;17.40;;;8.40;;
34828;SDS011;21042;47.620;12.188;2023-02-15T16:13:49;17.37;;;7.83;;
34828;SDS011;21042;47.620;12.188;2023-02-15T16:16:21;18.35;;;8.40;;
34828;SDS011;21042;47.620;12.188;2023-02-15T16:18:50;42.05;;;11.30;;
34828;SDS011;21042;47.620;12.188;2023-02-15T16:21:19;37.53;;;12.60;;
34828;SDS011;21042;47.620;12.188;2023-02-15T16:24:02;38.97;;;14.75;;
34828;SDS011;21042;47.620;12.188;2023-02-15T16:29:26;12.15;;;4.82;;
34828;SDS011;21042;47.620;12.188;2023-02-15T16:32:04;78.65;;;27.77;;
34828;SDS011;21042;47.620;12.188;2023-02-15T16:41:47;14.05;;;6.80;;
34828;SDS011;21042;47.620;12.188;2023-02-15T16:44:16;11.20;;;4.85;;
34828;SDS011;21042;47.620;12.188;2023-02-15T16:46:46;15.02;;;6.45;;
34828;SDS011;21042;47.620;12.188;2023-02-15T16:49:18;9.07;;;3.80;;
34828;SDS011;21042;47.620;12.188;2023-02-15T16:54:26;7.73;;;4.30;;
34828;SDS011;21042;47.620;12.188;2023-02-15T16:56:54;9.50;;;4.47;;
34828;SDS011;21042;47.620;12.188;2023-02-15T16:59:28;8.63;;;5.20;;
34828;SDS011;21042;47.620;12.188;2023-02-15T17:02:06;9.50;;;5.55;;
34828;SDS011;21042;47.620;12.188;2023-02-15T17:05:07;22.92;;;8.73;;
34828;SDS011;21042;47.620;12.188;2023-02-15T17:07:42;39.75;;;19.20;;
34828;SDS011;21042;47.620;12.188;2023-02-15T17:10:33;18.65;;;10.05;;
34828;SDS011;21042;47.620;12.188;2023-02-15T17:13:14;6.57;;;4.65;;
34828;SDS011;21042;47.620;12.188;2023-02-15T17:16:28;10.75;;;4.65;;
34828;SDS011;21042;47.620;12.188;2023-02-15T17:18:31;7.55;;;3.33;;
34828;SDS011;21042;47.620;12.188;2023-02-15T17:21:10;9.27;;;4.05;;
34828;SDS011;21042;47.620;12.188;2023-02-15T17:23:43;10.00;;;3.78;;
34828;SDS011;21042;47.620;12.188;2023-02-15T17:26:13;14.43;;;4.68;;
34828;SDS011;21042;47.620;12.188;2023-02-15T17:28:50;8.18;;;4.03;;
34828;SDS011;21042;47.620;12.188;2023-02-15T17:31:18;7.30;;;4.28;;
34828;SDS011;21042;47.620;12.188;2023-02-15T17:33:47;9.30;;;4.75;;
34828;SDS011;21042;47.620;12.188;2023-02-15T17:36:17;13.05;;;5.18;;
34828;SDS011;21042;47.620;12.188;2023-02-15T17:41:31;8.80;;;4.32;;
34828;SDS011;21042;47.620;12.188;2023-02-15T17:44:01;10.18;;;4.15;;
34828;SDS011;21042;47.620;12.188;2023-02-15T17:46:29;7.35;;;3.40;;
34828;SDS011;21042;47.620;12.188;2023-02-15T17:49:01;9.52;;;3.92;;
34828;SDS011;21042;47.620;12.188;2023-02-15T17:51:28;5.78;;;2.90;;
34828;SDS011;21042;47.620;12.188;2023-02-15T17:53:56;14.45;;;5.28;;
34828;SDS011;21042;47.620;12.188;2023-02-15T17:59:28;9.35;;;4.80;;
34828;SDS011;21042;47.620;12.188;2023-02-15T18:01:55;9.63;;;3.78;;
34828;SDS011;21042;47.620;12.188;2023-02-15T18:04:40;12.70;;;4.55;;
34828;SDS011;21042;47.620;12.188;2023-02-15T18:07:25;11.63;;;5.10;;
34828;SDS011;21042;47.620;12.188;2023-02-15T18:10:12;10.93;;;4.15;;
34828;SDS011;21042;47.620;12.188;2023-02-15T18:13:02;6.68;;;4.25;;
34828;SDS011;21042;47.620;12.188;2023-02-15T18:15:28;8.48;;;3.90;;
34828;SDS011;21042;47.620;12.188;2023-02-15T18:17:55;7.30;;;3.85;;
34828;SDS011;21042;47.620;12.188;2023-02-15T18:20:24;14.27;;;4.80;;